Accueil
METAR-TAF:

METAR-TAF

Aéroports :

Aéroport de Chambéry-Savoie

Chambery / Aix-Les-Bains, France

latitude: 45-39N, longitude: 005-53E, altitude: 235 m

Observation

Le bulletin a été fait il y a 11 minutes, à 20:00 UTC
Vent calme
Température 14°C
Humidité 94%
Pression 1028 hPa
Visibilité: 3900 m

METAR: LFLB 062000Z AUTO 00000KT 9999 3900 NSC 14/13 Q1028

Heure: 22:11 (20:11 UTC)

Prévision

Le bulletin a été fait il y a 6 heures et 11 minutes, à 14:00 UTC
Prévision valable du 06 à 15 UTC au 07 à 15 UTC
Vent 6 kt de nord
Visibilité 10 km ou plus
Nuages épars à une hauteur de 4000 ft
Temporairement
du 06 à 22 UTC au 07 à 09 UTC
Visibilité: 3000 m
Nuages fragmentés à une hauteur de 800 ft
brume
Probabilité 40%
du 07 à 02 UTC au 07 à 08 UTC
Visibilité: 0600 m
brouillard

TAF: LFLB 061400Z 0615/0715 35006KT 9999 SCT040 TEMPO 0622/0709 3000 BR BKN008 PROB40 0702/0708 0600 FG VV///

Observations et prévisions météorologiques de plus de 4000 aéroports (messages METAR et TAF).

Les stations disponibles sont représentées par des disques jaunes et rouges sur la carte.

Passer la souris dessus pour voir le nom de la station.

Cliquer dessus pour voir les observations et prévisions météorologiques.

Pour changer de carte: cliquez sur les boutons verts avec une croix noire pour zoomer, sur le bouton vert avec un tiret pour effectuer un zoom arrière, ou sur les flèches vertes pour les cartes adjacentes.


METAR-TAF: